logo
Search for airport 
image banner adimage banner adimage banner ad
image banner ad

TFFC - Saint Francois

Located in Saint Francois, Guadeloupe

ICAO - TFFC, IATA - SFC

Data provided by Airmate  

General information

Coordinates: N16°15'28" W61°15'45"
Elevation is 10 feet MSL.
Magnetic variation is -15.01° East
View others Airports in (unassigned)

Operational data

Special qualification required
Current time UTC:
Current local time:
Weather at : TFFR - Pointe A Pitre Le Raizet ( 28 km )
METAR: TFFR 090500Z AUTO 11003KT CAVOK 21/20 Q1017 TEMPO 09015G25KT 2000 +SHRA SCT008 FEW012CB BKN018TCU
TAF: TAF TFFR 082300Z 0900/0924 09005KT 9999 SCT030 TEMPO 0900/0921 4500 -SHRA BKN018TCU PROB40 TEMPO 0900/0918 09015G25KT 2000 +SHRA SCT008 FEW012CB BKN018TCU BECMG 0910/0912 07015KT BECMG 0922/0924 09005KT
View NOTAMs / SUP AIP / TFR affecting this airport [VIEW]
Communications frequencies: [VIEW]

Runways:

RWY identifierQFULength (ft)Width (ft)SurfaceLDA (ft)
1199°191659ASPH1916
29279°191659ASPH1916

Airport contact information

Address: Saint Francois Guadeloupe

Other aviation service providers

Aviation club (not for profit)

Aéroclub Saint-François Caraïbes

Aéroclub Saint-François Caraïbes

ULM Caraïbes

ULM Caraïbes
+330690642848

Satellite view of TFFC